createdAt,value
2022-08-26T00:00:11.953Z,99109.28
2022-08-26T00:03:01.338Z,99101.63
2022-08-26T00:05:51.035Z,99100.72
2022-08-26T00:08:39.543Z,99110.25
2022-08-26T00:11:29.850Z,99101.34
2022-08-26T00:14:18.438Z,99099.31
2022-08-26T00:17:08.663Z,99109.47
2022-08-26T00:19:56.617Z,99109.03
2022-08-26T00:22:45.250Z,99112.75
2022-08-26T00:25:33.418Z,99106.69
2022-08-26T00:28:21.764Z,99112.63
2022-08-26T00:31:10.851Z,99102.63
2022-08-26T00:34:00.830Z,99102.47
2022-08-26T00:36:51.822Z,99106.22
2022-08-26T00:39:39.903Z,99111.53
2022-08-26T00:42:28.122Z,99107.00
2022-08-26T00:45:16.738Z,99117.75
2022-08-26T00:48:07.888Z,99113.25
2022-08-26T00:51:02.869Z,99107.13
2022-08-26T00:53:57.183Z,99117.63
2022-08-26T00:56:54.063Z,99113.84
2022-08-26T00:59:42.276Z,99110.88
2022-08-26T01:02:30.740Z,99108.84
2022-08-26T01:05:20.739Z,99107.28
2022-08-26T01:08:10.536Z,99115.09
2022-08-26T01:11:00.425Z,99101.38
2022-08-26T01:13:50.484Z,99102.75
2022-08-26T01:16:39.180Z,99111.81
2022-08-26T01:19:36.286Z,99109.63
2022-08-26T01:22:29.614Z,99107.28
2022-08-26T01:25:20.884Z,99102.75
2022-08-26T01:28:15.228Z,99104.34
2022-08-26T01:31:05.928Z,99108.53
2022-08-26T01:34:03.456Z,99113.53
2022-08-26T01:36:54.433Z,99105.88
2022-08-26T01:39:43.490Z,99102.31
2022-08-26T01:42:34.566Z,99107.13
2022-08-26T01:45:27.492Z,99105.25
2022-08-26T01:48:21.089Z,99104.03
2022-08-26T01:51:12.620Z,99095.41
2022-08-26T01:54:03.120Z,99105.25
2022-08-26T01:56:52.969Z,99102.94
2022-08-26T01:59:42.514Z,99108.53
2022-08-26T02:02:31.325Z,99107.91
2022-08-26T02:05:22.765Z,99110.38
2022-08-26T02:08:10.865Z,99104.47
2022-08-26T02:10:59.073Z,99111.16
2022-08-26T02:13:51.105Z,99110.06
2022-08-26T02:16:43.654Z,99117.28
2022-08-26T02:19:35.068Z,99112.09
2022-08-26T02:22:25.477Z,99113.19
2022-08-26T02:25:21.153Z,99120.31
2022-08-26T02:28:11.063Z,99113.28
2022-08-26T02:30:58.875Z,99118.44
2022-08-26T02:33:49.014Z,99121.41
2022-08-26T02:36:37.082Z,99110.31
2022-08-26T02:39:25.140Z,99113.78
2022-08-26T02:42:13.103Z,99117.34
2022-08-26T02:45:01.686Z,99113.59
2022-08-26T02:47:51.574Z,99117.84
2022-08-26T02:50:42.213Z,99116.75
2022-08-26T02:53:32.126Z,99116.75
2022-08-26T02:56:23.700Z,99106.94
2022-08-26T02:59:12.727Z,99114.56
2022-08-26T03:02:00.682Z,99107.25
2022-08-26T03:04:57.807Z,99107.53
2022-08-26T03:07:51.624Z,99105.81
2022-08-26T03:10:39.643Z,99107.53
2022-08-26T03:13:28.196Z,99105.00
2022-08-26T03:16:16.779Z,99102.97
2022-08-26T03:19:08.982Z,99108.88
2022-08-26T03:21:58.009Z,99095.19
2022-08-26T03:24:47.459Z,99111.88
2022-08-26T03:27:35.957Z,99098.13
2022-08-26T03:30:45.455Z,99099.22
2022-08-26T03:33:33.981Z,99101.72
2022-08-26T03:36:23.053Z,99104.84
2022-08-26T03:39:12.766Z,99098.63
2022-08-26T03:42:02.119Z,99101.41
2022-08-26T03:44:51.630Z,99103.94
2022-08-26T03:47:39.642Z,99099.72
2022-08-26T03:50:28.358Z,99105.63
2022-08-26T03:53:16.437Z,99104.06
2022-08-26T03:56:08.594Z,99100.47
2022-08-26T03:58:57.986Z,99111.69
2022-08-26T04:01:46.507Z,99096.91
2022-08-26T04:04:37.521Z,99100.78
2022-08-26T04:07:26.114Z,99100.47
2022-08-26T04:10:16.826Z,99103.28
2022-08-26T04:13:08.508Z,99108.28
2022-08-26T04:15:57.977Z,99112.50
2022-08-26T04:18:46.820Z,99097.66
2022-08-26T04:21:35.243Z,99104.56
2022-08-26T04:24:25.797Z,99107.97
2022-08-26T04:27:14.014Z,99106.72
2022-08-26T04:30:01.823Z,99098.94
2022-08-26T04:32:51.610Z,99106.22
2022-08-26T04:35:39.758Z,99106.06
2022-08-26T04:38:31.388Z,99101.88
2022-08-26T04:41:19.712Z,99104.03
2022-08-26T04:44:07.878Z,99100.44
2022-08-26T04:46:56.626Z,99105.75
2022-08-26T04:49:45.982Z,99109.47
2022-08-26T04:52:33.970Z,99093.09
2022-08-26T04:55:21.574Z,99099.50
2022-08-26T04:58:26.568Z,99093.91
2022-08-26T05:01:14.491Z,99102.78
2022-08-26T05:04:05.013Z,99109.81
2022-08-26T05:07:02.758Z,99118.22
2022-08-26T05:09:50.794Z,99112.63
2022-08-26T05:12:38.827Z,99109.97
2022-08-26T05:15:27.424Z,99115.09
2022-08-26T05:18:19.873Z,99112.78
2022-08-26T05:21:09.180Z,99097.47
2022-08-26T05:23:58.929Z,99107.59
2022-08-26T05:26:47.299Z,99111.50
2022-08-26T05:29:35.732Z,99107.47
2022-08-26T05:32:23.736Z,99107.63
2022-08-26T05:35:12.084Z,99116.81
2022-08-26T05:38:00.731Z,99119.16
2022-08-26T05:41:04.082Z,99126.03
2022-08-26T05:43:54.347Z,99118.41
2022-08-26T05:46:44.104Z,99122.09
2022-08-26T05:49:32.100Z,99124.47
2022-08-26T05:52:20.727Z,99124.47
2022-08-26T05:55:09.494Z,99124.47
2022-08-26T05:57:59.249Z,99135.22
2022-08-26T06:01:00.934Z,99133.06
2022-08-26T06:03:52.877Z,99141.97
2022-08-26T06:06:41.732Z,99138.69
2022-08-26T06:09:30.781Z,99132.75
2022-08-26T06:12:19.006Z,99135.41
2022-08-26T06:15:10.061Z,99132.00
2022-08-26T06:17:57.954Z,99138.84
2022-08-26T06:20:57.182Z,99138.22
2022-08-26T06:24:05.988Z,99144.47
2022-08-26T06:26:57.032Z,99146.06
2022-08-26T06:29:44.906Z,99145.25
2022-08-26T06:32:34.218Z,99148.22
2022-08-26T06:35:23.091Z,99155.22
2022-08-26T06:38:12.121Z,99157.41
2022-08-26T06:41:00.215Z,99157.09
2022-08-26T06:43:49.462Z,99151.97
2022-08-26T06:46:37.882Z,99145.59
2022-08-26T06:49:27.799Z,99143.00
2022-08-26T06:52:19.951Z,99148.78
2022-08-26T06:55:11.447Z,99157.69
2022-08-26T06:57:59.760Z,99158.63
2022-08-26T07:00:47.640Z,99147.22
2022-08-26T07:03:39.735Z,99155.66
2022-08-26T07:06:29.743Z,99152.72
2022-08-26T07:09:18.399Z,99144.13
2022-08-26T07:12:06.942Z,99153.63
2022-08-26T07:14:55.164Z,99150.50
2022-08-26T07:17:45.804Z,99145.66
2022-08-26T07:20:33.533Z,99145.81
2022-08-26T07:23:23.093Z,99144.72
2022-08-26T07:26:16.391Z,99149.41
2022-08-26T07:29:05.361Z,99144.53
2022-08-26T07:31:52.920Z,99152.34
2022-08-26T07:34:41.803Z,99155.78
2022-08-26T07:37:30.565Z,99150.13
2022-08-26T07:40:26.801Z,99148.22
2022-08-26T07:43:14.467Z,99138.81
2022-08-26T07:46:02.855Z,99152.22
2022-08-26T07:48:52.472Z,99151.38
2022-08-26T07:51:40.968Z,99153.72
2022-08-26T07:54:28.750Z,99141.59
2022-08-26T07:57:19.080Z,99149.38
2022-08-26T08:00:10.068Z,99149.91
2022-08-26T08:03:00.794Z,99144.31
2022-08-26T08:05:49.140Z,99150.66
2022-08-26T08:08:36.977Z,99141.63
2022-08-26T08:11:26.461Z,99135.59
2022-08-26T08:14:15.506Z,99154.25
2022-08-26T08:17:05.848Z,99142.91
2022-08-26T08:19:54.484Z,99140.09
2022-08-26T08:22:42.592Z,99141.81
2022-08-26T08:25:31.322Z,99141.66
2022-08-26T08:28:18.923Z,99134.09
2022-08-26T08:31:11.437Z,99144.75
2022-08-26T08:33:59.329Z,99128.91
2022-08-26T08:36:47.418Z,99144.66
2022-08-26T08:39:35.209Z,99135.31
2022-08-26T08:42:40.165Z,99134.34
2022-08-26T08:45:37.041Z,99133.34
2022-08-26T08:48:29.567Z,99133.69
2022-08-26T08:51:27.705Z,99135.47
2022-08-26T08:54:16.193Z,99143.34
2022-08-26T08:57:12.726Z,99139.75
2022-08-26T09:00:11.232Z,99136.22
2022-08-26T09:03:03.144Z,99145.53
2022-08-26T09:05:55.627Z,99133.94
2022-08-26T09:08:45.314Z,99137.28
2022-08-26T09:11:33.091Z,99133.78
2022-08-26T09:14:20.867Z,99139.84
2022-08-26T09:17:21.290Z,99127.94
2022-08-26T09:20:20.716Z,99128.22
2022-08-26T09:23:11.338Z,99125.75
2022-08-26T09:26:03.121Z,99123.25
2022-08-26T09:28:58.519Z,99123.38
2022-08-26T09:31:47.067Z,99128.78
2022-08-26T09:34:36.255Z,99135.25
2022-08-26T09:37:39.861Z,99148.63
2022-08-26T09:40:34.973Z,99151.63
2022-08-26T09:43:23.545Z,99150.88
2022-08-26T09:46:18.755Z,99143.97
2022-08-26T09:49:36.381Z,99130.84
2022-08-26T09:52:27.951Z,99121.28
2022-08-26T09:55:23.325Z,99122.38
2022-08-26T09:58:16.259Z,99114.72
2022-08-26T10:01:08.254Z,99118.19
2022-08-26T10:04:08.160Z,99119.31
2022-08-26T10:07:02.719Z,99102.81
2022-08-26T10:09:51.748Z,99111.53
2022-08-26T10:12:47.221Z,99111.41
2022-08-26T10:15:50.628Z,99115.97
2022-08-26T10:18:43.717Z,99113.19
2022-08-26T10:21:38.483Z,99100.19
2022-08-26T10:24:36.096Z,99092.19
2022-08-26T10:27:48.448Z,99091.28
2022-08-26T10:30:47.333Z,99087.41
2022-08-26T10:33:35.450Z,99094.31
2022-08-26T10:37:10.646Z,99105.44
2022-08-26T10:39:58.968Z,99105.78
2022-08-26T10:42:54.871Z,99105.00
2022-08-26T10:45:50.520Z,99101.63
2022-08-26T10:48:48.098Z,99094.41
2022-08-26T10:51:42.395Z,99090.19
2022-08-26T10:54:40.703Z,99085.94
2022-08-26T10:57:39.983Z,99073.72
2022-08-26T11:00:52.696Z,99069.16
2022-08-26T11:03:54.819Z,99080.53
2022-08-26T11:06:46.788Z,99086.22
2022-08-26T11:09:47.903Z,99085.09
2022-08-26T11:12:57.519Z,99083.88
2022-08-26T11:16:04.152Z,99074.66
2022-08-26T11:18:56.026Z,99077.66
2022-08-26T11:22:06.086Z,99069.66
2022-08-26T11:25:14.526Z,99069.75
2022-08-26T11:28:02.804Z,99063.03
2022-08-26T11:30:57.547Z,99064.00
2022-08-26T11:33:51.337Z,99056.53
2022-08-26T11:37:01.798Z,99064.97
2022-08-26T11:39:57.203Z,99049.84
2022-08-26T11:42:50.703Z,99056.78
2022-08-26T11:45:41.969Z,99043.53
2022-08-26T11:48:34.085Z,99042.06
2022-08-26T11:51:26.260Z,99047.16
2022-08-26T11:54:18.340Z,99054.16
2022-08-26T11:57:23.058Z,99051.91
2022-08-26T12:00:15.841Z,99054.31
2022-08-26T12:03:09.568Z,99051.81
2022-08-26T12:05:57.750Z,99050.84
2022-08-26T12:08:57.418Z,99038.81
2022-08-26T12:12:13.233Z,99026.75
2022-08-26T12:15:25.819Z,99016.94
2022-08-26T12:18:29.999Z,99007.19
2022-08-26T12:21:28.480Z,99010.03
2022-08-26T12:24:23.226Z,99009.75
2022-08-26T12:27:20.686Z,98991.94
2022-08-26T12:30:14.320Z,98991.38
2022-08-26T12:33:13.325Z,98992.63
2022-08-26T12:36:11.227Z,98992.69
2022-08-26T12:39:10.430Z,98989.38
2022-08-26T12:42:00.949Z,98990.25
2022-08-26T12:44:59.556Z,98999.53
2022-08-26T12:47:48.051Z,98994.59
2022-08-26T12:50:39.086Z,98983.53
2022-08-26T12:53:29.503Z,98989.38
2022-08-26T12:56:31.536Z,98984.88
2022-08-26T12:59:25.721Z,98981.06
2022-08-26T13:02:39.855Z,98975.34
2022-08-26T13:05:34.001Z,98964.72
2022-08-26T13:08:29.214Z,98967.03
2022-08-26T13:11:20.702Z,98950.63
2022-08-26T13:14:10.880Z,98954.94
2022-08-26T13:16:59.139Z,98944.28
2022-08-26T13:19:48.368Z,98937.09
2022-08-26T13:22:36.778Z,98936.81
2022-08-26T13:25:24.444Z,98925.78
2022-08-26T13:28:12.259Z,98931.22
2022-08-26T13:31:00.691Z,98922.03
2022-08-26T13:33:52.974Z,98922.81
2022-08-26T13:36:45.033Z,98921.25
2022-08-26T13:39:33.015Z,98921.25
2022-08-26T13:42:20.852Z,98910.53
2022-08-26T13:45:10.155Z,98919.00
2022-08-26T13:47:58.843Z,98918.66
2022-08-26T13:50:47.614Z,98914.81
2022-08-26T13:53:36.717Z,98915.19
2022-08-26T13:56:27.577Z,98916.31
2022-08-26T13:59:15.405Z,98917.47
2022-08-26T14:02:04.092Z,98910.94
2022-08-26T14:04:51.951Z,98913.53
2022-08-26T14:07:40.634Z,98910.84
2022-08-26T14:10:29.791Z,98906.19
2022-08-26T14:13:18.562Z,98913.44
2022-08-26T14:16:13.443Z,98910.38
2022-08-26T14:19:02.492Z,98912.97
2022-08-26T14:21:50.703Z,98914.47
2022-08-26T14:24:38.655Z,98915.53
2022-08-26T14:27:27.941Z,98908.22
2022-08-26T14:30:16.298Z,98910.81
2022-08-26T14:33:04.372Z,98912.31
2022-08-26T14:35:53.167Z,98909.56
2022-08-26T14:38:42.058Z,98901.47
2022-08-26T14:41:31.550Z,98897.22
2022-08-26T14:44:21.433Z,98893.00
2022-08-26T14:47:11.742Z,98891.47
2022-08-26T14:49:59.475Z,98883.44
2022-08-26T14:53:04.654Z,98886.13
2022-08-26T14:55:52.572Z,98896.47
2022-08-26T14:58:40.120Z,98924.44
2022-08-26T15:01:31.057Z,98933.88
2022-08-26T15:04:19.670Z,98946.84
2022-08-26T15:07:08.470Z,98962.06
2022-08-26T15:10:00.461Z,98935.50
2022-08-26T15:12:48.240Z,98928.78
2022-08-26T15:15:37.471Z,98929.66
2022-08-26T15:18:26.709Z,98925.44
2022-08-26T15:21:14.658Z,98937.66
2022-08-26T15:24:05.639Z,98938.94
2022-08-26T15:26:54.506Z,98935.41
2022-08-26T15:29:42.464Z,98937.63
2022-08-26T15:32:30.829Z,98941.09
2022-08-26T15:35:20.089Z,98942.22
2022-08-26T15:38:08.321Z,98937.56
2022-08-26T15:40:57.800Z,98938.31
2022-08-26T15:43:48.874Z,98930.22
2022-08-26T15:46:38.521Z,98927.56
2022-08-26T15:49:26.704Z,98929.03
2022-08-26T15:52:17.776Z,98939.69
2022-08-26T15:55:07.150Z,98949.59
2022-08-26T15:57:55.807Z,98965.47
2022-08-26T16:00:44.964Z,98969.28
2022-08-26T16:03:32.900Z,98980.28
2022-08-26T16:06:24.425Z,98987.53
2022-08-26T16:09:13.566Z,98987.06
2022-08-26T16:12:01.678Z,98993.09
2022-08-26T16:14:51.475Z,99008.22
2022-08-26T16:17:40.856Z,99004.66
2022-08-26T16:20:28.957Z,98996.44
2022-08-26T16:23:17.151Z,98996.44
2022-08-26T16:26:11.729Z,98995.53
2022-08-26T16:28:59.546Z,98999.56
2022-08-26T16:31:50.603Z,99004.56
2022-08-26T16:34:38.205Z,99011.56
2022-08-26T16:37:39.401Z,99018.69
2022-08-26T16:40:27.551Z,99011.03
2022-08-26T16:43:17.226Z,99012.47
2022-08-26T16:46:07.992Z,99018.47
2022-08-26T16:48:57.959Z,99016.94
2022-08-26T16:51:46.946Z,99016.69
2022-08-26T16:54:34.933Z,99017.78
2022-08-26T16:57:23.052Z,99017.91
2022-08-26T17:00:17.768Z,99017.44
2022-08-26T17:03:06.013Z,99015.44
2022-08-26T17:05:54.367Z,99023.09
2022-08-26T17:08:43.678Z,99032.66
2022-08-26T17:11:31.559Z,99036.88
2022-08-26T17:14:19.535Z,99044.75
2022-08-26T17:17:08.945Z,99045.09
2022-08-26T17:19:57.137Z,99038.53
2022-08-26T17:22:49.691Z,99042.66
2022-08-26T17:25:37.774Z,99030.22
2022-08-26T17:28:25.603Z,99043.53
2022-08-26T17:31:14.939Z,99034.28
2022-08-26T17:34:04.252Z,99028.88
2022-08-26T17:36:52.912Z,99022.66
2022-08-26T17:39:44.002Z,99030.97
2022-08-26T17:42:31.934Z,99030.47
2022-08-26T17:48:13.619Z,99046.94
2022-08-26T17:51:07.736Z,99057.59
2022-08-26T17:53:55.620Z,99056.34
2022-08-26T17:56:43.441Z,99061.22
2022-08-26T17:59:31.329Z,99059.19
2022-08-26T18:02:20.393Z,99069.41
2022-08-26T18:05:11.568Z,99067.09
2022-08-26T18:08:00.997Z,99073.81
2022-08-26T18:10:49.307Z,99070.72
2022-08-26T18:13:37.413Z,99076.38
2022-08-26T18:16:34.132Z,99073.56
2022-08-26T18:19:22.063Z,99063.25
2022-08-26T18:22:10.157Z,99057.81
2022-08-26T18:25:06.780Z,99052.03
2022-08-26T18:27:54.483Z,99057.59
2022-08-26T18:30:44.304Z,99057.78
2022-08-26T18:33:32.186Z,99065.97
2022-08-26T18:36:22.158Z,99071.63
2022-08-26T18:39:11.573Z,99078.81
2022-08-26T18:42:00.789Z,99077.00
2022-08-26T18:44:51.913Z,99082.97
2022-08-26T18:47:40.217Z,99085.19
2022-08-26T18:50:28.168Z,99090.50
2022-08-26T18:53:16.107Z,99102.22
2022-08-26T18:56:03.877Z,99109.72
2022-08-26T18:58:53.382Z,99113.81
2022-08-26T19:01:42.876Z,99110.72
2022-08-26T19:04:30.799Z,99116.81
2022-08-26T19:07:18.938Z,99120.59
2022-08-26T19:10:07.828Z,99113.72
2022-08-26T19:13:00.126Z,99122.78
2022-08-26T19:15:50.046Z,99121.38
2022-08-26T19:18:37.562Z,99115.25
2022-08-26T19:21:25.877Z,99124.34
2022-08-26T19:24:17.650Z,99139.06
2022-08-26T19:27:06.134Z,99137.84
2022-08-26T19:29:54.116Z,99142.38
2022-08-26T19:32:43.093Z,99148.47
2022-08-26T19:35:30.723Z,99150.69
2022-08-26T19:38:18.426Z,99149.91
2022-08-26T19:41:06.647Z,99163.19
2022-08-26T19:43:54.588Z,99152.56
2022-08-26T19:46:46.428Z,99159.75
2022-08-26T19:49:36.042Z,99168.84
2022-08-26T19:52:29.761Z,99161.06
2022-08-26T19:55:20.172Z,99165.00
2022-08-26T19:58:08.079Z,99159.84
2022-08-26T20:00:55.814Z,99154.84
2022-08-26T20:03:44.857Z,99151.44
2022-08-26T20:06:34.018Z,99159.72
2022-08-26T20:09:21.706Z,99161.16
2022-08-26T20:12:10.735Z,99160.38
2022-08-26T20:14:58.839Z,99166.00
2022-08-26T20:17:46.632Z,99169.78
2022-08-26T20:20:54.837Z,99169.31
2022-08-26T20:23:45.917Z,99165.09
2022-08-26T20:26:36.090Z,99166.66
2022-08-26T20:29:24.014Z,99170.09
2022-08-26T20:32:12.682Z,99166.97
2022-08-26T20:35:01.055Z,99173.72
2022-08-26T20:37:48.748Z,99180.13
2022-08-26T20:40:37.940Z,99182.31
2022-08-26T20:43:25.921Z,99192.47
2022-08-26T20:46:17.968Z,99190.94
2022-08-26T20:49:07.671Z,99190.50
2022-08-26T20:51:55.908Z,99192.34
2022-08-26T20:54:43.849Z,99188.91
2022-08-26T20:57:32.837Z,99184.19
2022-08-26T21:00:23.021Z,99178.44
2022-08-26T21:03:14.458Z,99179.06
2022-08-26T21:06:03.270Z,99176.72
2022-08-26T21:08:51.600Z,99172.06
2022-08-26T21:11:42.504Z,99170.50
2022-08-26T21:14:36.056Z,99178.91
2022-08-26T21:17:24.035Z,99171.56
2022-08-26T21:20:11.969Z,99168.16
2022-08-26T21:23:00.105Z,99173.31
2022-08-26T21:25:49.716Z,99174.25
2022-08-26T21:28:40.143Z,99180.25
2022-08-26T21:31:29.796Z,99171.63
2022-08-26T21:34:19.538Z,99179.97
2022-08-26T21:37:15.281Z,99180.28
2022-08-26T21:40:06.273Z,99189.47
2022-08-26T21:42:54.711Z,99193.25
2022-08-26T21:45:42.517Z,99193.69
2022-08-26T21:48:34.564Z,99190.22
2022-08-26T21:51:26.133Z,99197.44
2022-08-26T21:54:14.737Z,99199.63
2022-08-26T21:57:02.410Z,99203.41
2022-08-26T21:59:50.355Z,99207.47
2022-08-26T22:02:38.185Z,99212.00
2022-08-26T22:05:27.372Z,99211.19
2022-08-26T22:08:15.676Z,99212.94
2022-08-26T22:11:04.732Z,99216.38
2022-08-26T22:13:53.338Z,99231.53
2022-08-26T22:16:41.189Z,99220.91
2022-08-26T22:19:46.308Z,99220.91
2022-08-26T22:22:36.220Z,99218.56
2022-08-26T22:25:24.239Z,99210.59
2022-08-26T22:28:12.186Z,99211.69
2022-08-26T22:31:00.033Z,99208.25
2022-08-26T22:33:47.771Z,99217.63
2022-08-26T22:36:36.185Z,99209.19
2022-08-26T22:39:32.209Z,99211.41
2022-08-26T22:42:20.062Z,99216.88
2022-08-26T22:45:10.816Z,99216.09
2022-08-26T22:47:58.702Z,99216.38
2022-08-26T22:50:47.754Z,99236.09
2022-08-26T22:53:35.945Z,99231.09
2022-08-26T22:56:30.663Z,99229.34
2022-08-26T22:59:18.741Z,99236.84
2022-08-26T23:02:06.802Z,99226.09
2022-08-26T23:04:56.016Z,99229.50
2022-08-26T23:07:43.678Z,99227.16
2022-08-26T23:10:32.659Z,99235.91
2022-08-26T23:13:22.295Z,99227.94
2022-08-26T23:16:13.267Z,99231.09
2022-08-26T23:19:01.215Z,99229.50
2022-08-26T23:21:49.622Z,99232.47
2022-08-26T23:24:37.383Z,99240.00
2022-08-26T23:27:25.352Z,99237.66
2022-08-26T23:30:19.348Z,99242.16
2022-08-26T23:33:07.329Z,99239.81
2022-08-26T23:35:55.461Z,99234.50
2022-08-26T23:38:43.288Z,99225.78
2022-08-26T23:41:31.086Z,99222.34
2022-08-26T23:44:20.764Z,99225.31
2022-08-26T23:47:10.360Z,99219.81
2022-08-26T23:49:58.209Z,99220.47
2022-08-26T23:53:03.409Z,99218.13
2022-08-26T23:55:54.144Z,99225.63
2022-08-26T23:58:41.899Z,99223.75
